This is the latest recevied weather packets stored in our database for station/object WE8M. If no packets are shown the sender has not sent any weather packets the latest 10 day(s).
| Time | Temp. | Humidity | Pressure | Rain* | Wind** | Luminosity | Snow |
|---|---|---|---|---|---|---|---|
| 1777564490 | 9.44° C | 70% | 1017.1 hPa | 0 mm | - | - | - |
| 1777564186 | 9.44° C | 70% | 1016.9 hPa | 0 mm | - | - | - |
| 1777563883 | 10° C | 71% | 1016.9 hPa | 0 mm | - | - | - |
| 1777563579 | 11.11° C | 64% | 1016.9 hPa | 0 mm | - | - | - |
| 1777563279 | 10.56° C | 69% | 1016.8 hPa | 0 mm | - | - | - |
| 1777562976 | 10° C | 72% | 1017 hPa | 0 mm | - | - | - |
| 1777562671 | 9.44° C | 69% | 1016.8 hPa | 0 mm | - | - | - |
| 1777562366 | 9.44° C | 71% | 1016.9 hPa | 0 mm | - | - | - |
| 1777562061 | 8.89° C | 72% | 1016.9 hPa | 0 mm | - | - | - |
| 1777561759 | 8.89° C | 72% | 1016.6 hPa | 0 mm | - | - | - |
| 1777561454 | 8.33° C | 72% | 1016.8 hPa | 0 mm | - | - | - |
| 1777561149 | 8.33° C | 73% | 1016.9 hPa | 0 mm | - | - | - |
| 1777560844 | 8.33° C | 72% | 1016.7 hPa | 0 mm | - | - | - |
| 1777560543 | 8.33° C | 71% | 1016.7 hPa | 0 mm | - | - | - |
| 1777560241 | 8.33° C | 74% | 1016.7 hPa | 0 mm | - | - | - |
| 1777559937 | 8.33° C | 75% | 1016.7 hPa | 0 mm | - | - | - |
| 1777559637 | 7.78° C | 77% | 1016.5 hPa | 0 mm | - | - | - |
| 1777559336 | 7.78° C | 77% | 1016.7 hPa | 0 mm | - | - | - |
| 1777559031 | 7.78° C | 76% | 1016.6 hPa | 0 mm | - | - | - |
| 1777558727 | 7.78° C | 78% | 1016.7 hPa | 0 mm | - | - | - |
| 1777558423 | 7.78° C | 76% | 1016.6 hPa | 0 mm | - | - | - |
| 1777558119 | 7.78° C | 77% | 1016.5 hPa | 0 mm | - | - | - |
| 1777557816 | 8.33° C | 77% | 1016.6 hPa | 0 mm | - | - | - |
| 1777557513 | 8.33° C | 77% | 1016.3 hPa | 0 mm | - | - | - |
| 1777557209 | 8.33° C | 75% | 1016.4 hPa | 0 mm | - | - | - |
* Rain latest hour (hover to see other rain measurements)
** Current wind speed in m/s (hover to see current wind gust speed)